Terminal Aerodrome Forecast
Issued by NWS

Home | Current Version | Previous Version | Graphics & Text | Print | Product List | Glossary On
Versions: 1 2 3 4 5 6 7 8 9 10 11 12 13 14 15
000
FTUS43 KGRB 021134
TAFAUW
TAF
KAUW 021134Z 0212/0312 30005KT P6SM BKN025 OVC035
      TEMPO 0212/0216 BKN018
     FM021600 30004KT P6SM OVC018=

USA.gov is the U.S. government's official web portal to all federal, state and local government web resources and services.